createdAt,value
2018-06-24T00:00:42.795Z,87.37
2018-06-24T00:01:42.743Z,87.45
2018-06-24T00:02:42.714Z,87.45
2018-06-24T00:03:42.806Z,87.67
2018-06-24T00:04:42.765Z,87.90
2018-06-24T00:05:42.737Z,87.93
2018-06-24T00:06:42.767Z,88.01
2018-06-24T00:07:42.770Z,87.96
2018-06-24T00:08:42.771Z,87.85
2018-06-24T00:09:42.733Z,87.93
2018-06-24T00:10:42.777Z,88.04
2018-06-24T00:11:42.810Z,88.09
2018-06-24T00:12:42.801Z,88.04
2018-06-24T00:13:42.765Z,88.12
2018-06-24T00:14:42.802Z,88.15
2018-06-24T00:15:42.797Z,88.04
2018-06-24T00:16:42.692Z,87.96
2018-06-24T00:17:42.774Z,87.96
2018-06-24T00:18:42.775Z,87.93
2018-06-24T00:19:42.739Z,87.90
2018-06-24T00:20:42.711Z,87.88
2018-06-24T00:21:42.719Z,87.88
2018-06-24T00:22:42.789Z,87.93
2018-06-24T00:23:42.779Z,87.93
2018-06-24T00:24:42.712Z,87.93
2018-06-24T00:25:42.729Z,87.98
2018-06-24T00:26:42.682Z,88.09
2018-06-24T00:27:42.702Z,88.15
2018-06-24T00:28:42.722Z,88.20
2018-06-24T00:29:42.721Z,88.20
2018-06-24T00:30:42.771Z,88.23
2018-06-24T00:31:42.813Z,88.33
2018-06-24T00:32:42.650Z,88.36
2018-06-24T00:33:42.702Z,88.44
2018-06-24T00:34:42.706Z,88.39
2018-06-24T00:35:42.693Z,88.36
2018-06-24T00:36:42.744Z,88.33
2018-06-24T00:37:42.687Z,88.25
2018-06-24T00:38:42.752Z,88.12
2018-06-24T00:39:42.693Z,87.90
2018-06-24T00:40:42.815Z,87.40
2018-06-24T00:41:42.691Z,87.26
2018-06-24T00:42:42.764Z,87.24
2018-06-24T00:43:42.772Z,87.24
2018-06-24T00:44:42.694Z,87.32
2018-06-24T00:45:42.765Z,87.43
2018-06-24T00:46:42.719Z,87.56
2018-06-24T00:47:42.807Z,87.61
2018-06-24T00:48:42.730Z,87.69
2018-06-24T00:49:42.798Z,87.77
2018-06-24T00:50:42.731Z,87.82
2018-06-24T00:51:42.732Z,87.98
2018-06-24T00:52:42.798Z,88.15
2018-06-24T00:53:42.733Z,88.20
2018-06-24T00:54:42.730Z,88.20
2018-06-24T00:55:42.739Z,88.50
2018-06-24T00:56:42.804Z,88.76
2018-06-24T00:57:42.782Z,89.11
2018-06-24T00:58:42.777Z,89.40
2018-06-24T00:59:42.675Z,89.72
2018-06-24T01:00:42.780Z,90.07
2018-06-24T01:01:42.650Z,90.45
2018-06-24T01:02:42.737Z,90.77
2018-06-24T01:03:42.669Z,90.98
2018-06-24T01:04:42.711Z,91.01
2018-06-24T01:05:42.791Z,91.20
2018-06-24T01:06:42.793Z,91.38
2018-06-24T01:07:42.681Z,91.47
2018-06-24T01:08:42.803Z,91.82
2018-06-24T01:09:42.802Z,92.11
2018-06-24T01:10:42.731Z,92.19
2018-06-24T01:11:42.771Z,92.30
2018-06-24T01:12:42.753Z,92.38
2018-06-24T01:13:42.718Z,92.73
2018-06-24T01:14:42.690Z,92.99
2018-06-24T01:15:42.753Z,93.21
2018-06-24T01:16:42.808Z,93.81
2018-06-24T01:17:42.752Z,94.21
2018-06-24T01:18:42.845Z,94.29
2018-06-24T01:19:42.735Z,94.18
2018-06-24T01:20:42.786Z,94.48
2018-06-24T01:21:42.847Z,94.72
2018-06-24T01:22:42.850Z,94.69
2018-06-24T01:23:42.789Z,94.77
2018-06-24T01:24:42.786Z,95.47
2018-06-24T01:25:42.724Z,96.02
2018-06-24T01:26:42.747Z,96.42
2018-06-24T01:27:42.730Z,96.96
2018-06-24T01:28:42.785Z,97.55
2018-06-24T01:29:42.850Z,97.88
2018-06-24T01:30:42.798Z,97.99
2018-06-24T01:31:42.825Z,98.04
2018-06-24T01:32:42.823Z,98.07
2018-06-24T01:33:42.761Z,98.12
2018-06-24T01:34:42.859Z,98.02
2018-06-24T01:35:42.827Z,98.18
2018-06-24T01:36:42.768Z,98.40
2018-06-24T01:37:42.852Z,98.66
2018-06-24T01:38:42.789Z,98.94
2018-06-24T01:39:42.768Z,99.18
2018-06-24T01:40:42.857Z,99.34
2018-06-24T01:41:42.906Z,99.64
2018-06-24T01:42:42.811Z,99.81
2018-06-24T01:43:42.754Z,99.86
2018-06-24T01:44:42.836Z,99.99
2018-06-24T01:45:42.833Z,99.99
2018-06-24T01:46:42.756Z,99.99
2018-06-24T01:47:42.829Z,99.99
2018-06-24T01:48:42.817Z,99.99
2018-06-24T01:49:42.830Z,99.99
2018-06-24T01:50:42.737Z,99.99
2018-06-24T01:51:42.762Z,99.99
2018-06-24T01:52:42.813Z,99.99
2018-06-24T01:53:42.776Z,99.99
2018-06-24T01:54:42.801Z,99.99
2018-06-24T01:55:42.800Z,99.99
2018-06-24T01:56:42.776Z,99.99
2018-06-24T01:57:42.806Z,99.99
2018-06-24T01:58:42.870Z,99.99
2018-06-24T01:59:42.881Z,99.99
2018-06-24T02:00:42.869Z,99.99
2018-06-24T02:01:42.802Z,99.99
2018-06-24T02:02:42.816Z,99.99
2018-06-24T02:03:42.901Z,99.99
2018-06-24T02:04:42.814Z,99.99
2018-06-24T02:05:42.749Z,99.99
2018-06-24T02:06:42.876Z,99.99
2018-06-24T02:07:42.753Z,99.99
2018-06-24T02:08:42.773Z,99.99
2018-06-24T02:09:42.772Z,99.99
2018-06-24T02:10:42.889Z,99.99
2018-06-24T02:11:42.874Z,99.99
2018-06-24T02:12:42.833Z,99.99
2018-06-24T02:13:42.859Z,99.99
2018-06-24T02:14:42.816Z,99.99
2018-06-24T02:15:51.481Z,99.99
2018-06-24T02:16:42.757Z,99.99
2018-06-24T02:17:42.817Z,99.99
2018-06-24T02:18:42.797Z,99.99
2018-06-24T02:19:42.822Z,99.99
2018-06-24T02:20:42.785Z,99.99
2018-06-24T02:21:42.828Z,99.99
2018-06-24T02:22:42.823Z,99.99
2018-06-24T02:23:42.780Z,99.99
2018-06-24T02:24:42.817Z,99.99
2018-06-24T02:25:42.902Z,99.99
2018-06-24T02:26:42.780Z,99.99
2018-06-24T02:27:42.894Z,99.99
2018-06-24T02:28:42.841Z,99.99
2018-06-24T02:29:42.864Z,99.99
2018-06-24T02:30:42.900Z,99.99
2018-06-24T02:31:42.923Z,99.99
2018-06-24T02:32:42.846Z,99.99
2018-06-24T02:33:42.913Z,99.99
2018-06-24T02:34:42.782Z,99.99
2018-06-24T02:35:42.895Z,99.99
2018-06-24T02:36:42.894Z,99.99
2018-06-24T02:37:42.803Z,99.99
2018-06-24T02:38:42.867Z,99.99
2018-06-24T02:39:42.806Z,99.99
2018-06-24T02:40:42.878Z,99.99
2018-06-24T02:41:42.808Z,99.99
2018-06-24T02:42:42.880Z,99.99
2018-06-24T02:43:42.874Z,99.99
2018-06-24T02:44:42.823Z,99.99
2018-06-24T02:45:42.806Z,99.99
2018-06-24T02:46:42.809Z,99.99
2018-06-24T02:47:42.874Z,99.99
2018-06-24T02:48:42.810Z,99.99
2018-06-24T02:49:42.898Z,99.99
2018-06-24T02:50:42.811Z,99.99
2018-06-24T02:51:42.883Z,99.99
2018-06-24T02:52:42.814Z,99.99
2018-06-24T02:53:42.913Z,99.99
2018-06-24T02:54:42.812Z,99.99
2018-06-24T02:55:42.812Z,99.99
2018-06-24T02:56:42.816Z,99.99
2018-06-24T02:57:42.921Z,99.99
2018-06-24T02:58:42.808Z,99.99
2018-06-24T02:59:42.884Z,99.99
2018-06-24T03:00:42.826Z,99.99
2018-06-24T03:01:42.886Z,99.99
2018-06-24T03:02:42.887Z,99.99
2018-06-24T03:03:42.924Z,99.99
2018-06-24T03:04:42.928Z,99.99
2018-06-24T03:05:42.886Z,99.99
2018-06-24T03:06:42.930Z,99.99
2018-06-24T03:07:42.822Z,99.99
2018-06-24T03:08:42.896Z,99.99
2018-06-24T03:09:42.825Z,99.99
2018-06-24T03:10:42.825Z,99.99
2018-06-24T03:11:42.829Z,99.99
2018-06-24T03:12:42.892Z,99.99
2018-06-24T03:13:42.854Z,99.99
2018-06-24T03:14:42.903Z,99.99
2018-06-24T03:15:42.824Z,99.99
2018-06-24T03:16:42.893Z,99.99
2018-06-24T03:17:42.931Z,99.99
2018-06-24T03:18:42.820Z,99.99
2018-06-24T03:19:42.867Z,99.99
2018-06-24T03:20:42.870Z,99.99
2018-06-24T03:21:42.924Z,99.99
2018-06-24T03:22:42.897Z,99.99
2018-06-24T03:23:42.916Z,99.99
2018-06-24T03:24:42.842Z,99.99
2018-06-24T03:25:42.932Z,99.99
2018-06-24T03:26:42.938Z,99.99
2018-06-24T03:27:42.900Z,99.99
2018-06-24T03:28:42.929Z,99.99
2018-06-24T03:29:42.871Z,99.99
2018-06-24T03:30:42.913Z,99.99
2018-06-24T03:31:42.801Z,99.99
2018-06-24T03:32:42.869Z,99.99
2018-06-24T03:33:42.901Z,99.99
2018-06-24T03:34:42.923Z,99.99
2018-06-24T03:35:42.947Z,99.99
2018-06-24T03:36:42.944Z,99.99
2018-06-24T03:37:42.884Z,99.99
2018-06-24T03:38:42.842Z,99.99
2018-06-24T03:39:42.859Z,99.99
2018-06-24T03:40:42.911Z,99.99
2018-06-24T03:41:42.911Z,99.99
2018-06-24T03:42:42.909Z,99.99
2018-06-24T03:43:42.910Z,99.99
2018-06-24T03:44:42.846Z,99.99
2018-06-24T03:45:42.846Z,99.99
2018-06-24T03:46:42.854Z,99.99
2018-06-24T03:47:42.852Z,99.99
2018-06-24T03:48:42.874Z,99.99
2018-06-24T03:49:42.893Z,99.99
2018-06-24T03:50:42.883Z,99.99
2018-06-24T03:51:42.885Z,99.99
2018-06-24T03:52:42.834Z,99.99
2018-06-24T03:53:42.856Z,99.99
2018-06-24T03:54:42.943Z,99.99
2018-06-24T03:55:42.825Z,99.99
2018-06-24T03:56:42.827Z,99.99
2018-06-24T03:57:42.878Z,99.99
2018-06-24T03:58:42.854Z,99.99
2018-06-24T03:59:42.882Z,99.99
2018-06-24T04:00:42.953Z,99.99
2018-06-24T04:01:42.886Z,99.99
2018-06-24T04:02:42.922Z,99.99
2018-06-24T04:03:42.891Z,99.99
2018-06-24T04:04:42.963Z,99.99
2018-06-24T04:05:42.953Z,99.99
2018-06-24T04:06:42.893Z,99.99
2018-06-24T04:07:42.950Z,99.99
2018-06-24T04:08:42.867Z,99.99
2018-06-24T04:09:42.898Z,99.99
2018-06-24T04:10:42.897Z,99.99
2018-06-24T04:11:42.962Z,99.99
2018-06-24T04:12:42.904Z,99.99
2018-06-24T04:13:42.969Z,99.99
2018-06-24T04:14:42.948Z,99.99
2018-06-24T04:15:42.964Z,99.99
2018-06-24T04:16:42.952Z,99.99
2018-06-24T04:17:42.832Z,99.99
2018-06-24T04:18:42.831Z,99.99
2018-06-24T04:19:42.843Z,99.99
2018-06-24T04:20:42.835Z,99.99
2018-06-24T04:21:42.876Z,99.99
2018-06-24T04:22:42.912Z,99.99
2018-06-24T04:23:42.937Z,99.99
2018-06-24T04:24:42.968Z,99.99
2018-06-24T04:25:43.048Z,99.99
2018-06-24T04:26:42.906Z,99.99
2018-06-24T04:27:42.911Z,99.99
2018-06-24T04:28:42.939Z,99.99
2018-06-24T04:29:42.913Z,99.99
2018-06-24T04:30:42.942Z,99.99
2018-06-24T04:31:42.943Z,99.99
2018-06-24T04:32:42.965Z,99.99
2018-06-24T04:33:42.985Z,99.99
2018-06-24T04:34:42.851Z,99.99
2018-06-24T04:35:42.903Z,99.99
2018-06-24T04:36:42.868Z,99.99
2018-06-24T04:37:42.984Z,99.99
2018-06-24T04:38:42.965Z,99.99
2018-06-24T04:39:42.983Z,99.99
2018-06-24T04:40:42.977Z,99.99
2018-06-24T04:41:42.976Z,99.99
2018-06-24T04:42:42.925Z,99.99
2018-06-24T04:43:42.908Z,99.99
2018-06-24T04:44:42.915Z,99.99
2018-06-24T04:45:42.924Z,99.99
2018-06-24T04:46:42.887Z,99.99
2018-06-24T04:47:42.972Z,99.99
2018-06-24T04:48:42.907Z,99.99
2018-06-24T04:49:42.890Z,99.99
2018-06-24T04:50:42.954Z,99.99
2018-06-24T04:51:43.072Z,99.99
2018-06-24T04:52:42.913Z,99.99
2018-06-24T04:53:42.893Z,99.99
2018-06-24T04:54:42.986Z,99.59
2018-06-24T04:55:42.932Z,99.21
2018-06-24T04:56:42.957Z,98.69
2018-06-24T04:57:42.869Z,98.02
2018-06-24T04:58:42.990Z,97.39
2018-06-24T04:59:42.982Z,96.61
2018-06-24T05:00:43.033Z,95.98
2018-06-24T05:01:43.000Z,95.64
2018-06-24T05:02:42.938Z,95.39
2018-06-24T05:03:42.943Z,94.99
2018-06-24T05:04:42.936Z,94.23
2018-06-24T05:05:42.961Z,93.72
2018-06-24T05:06:42.966Z,93.48
2018-06-24T05:07:42.926Z,92.70
2018-06-24T05:08:42.905Z,92.38
2018-06-24T05:09:42.940Z,92.08
2018-06-24T05:10:42.928Z,91.84
2018-06-24T05:11:42.968Z,91.76
2018-06-24T05:12:42.914Z,91.76
2018-06-24T05:13:42.972Z,91.92
2018-06-24T05:14:42.970Z,92.05
2018-06-24T05:15:43.039Z,92.30
2018-06-24T05:16:42.972Z,92.40
2018-06-24T05:17:42.916Z,92.57
2018-06-24T05:18:42.858Z,92.57
2018-06-24T05:19:42.976Z,92.30
2018-06-24T05:20:42.905Z,92.35
2018-06-24T05:21:42.974Z,92.59
2018-06-24T05:22:42.951Z,92.70
2018-06-24T05:23:42.910Z,92.54
2018-06-24T05:24:42.912Z,92.43
2018-06-24T05:25:42.914Z,91.95
2018-06-24T05:26:42.916Z,91.84
2018-06-24T05:27:42.982Z,91.95
2018-06-24T05:28:43.014Z,92.11
2018-06-24T05:29:42.945Z,92.16
2018-06-24T05:30:42.988Z,91.76
2018-06-24T05:31:42.951Z,91.55
2018-06-24T05:32:43.024Z,91.22
2018-06-24T05:33:42.983Z,90.96
2018-06-24T05:34:42.888Z,90.90
2018-06-24T05:35:42.885Z,90.66
2018-06-24T05:36:42.965Z,90.71
2018-06-24T05:37:43.028Z,90.66
2018-06-24T05:38:43.009Z,90.66
2018-06-24T05:39:42.953Z,90.74
2018-06-24T05:40:43.022Z,90.96
2018-06-24T05:41:43.026Z,90.82
2018-06-24T05:42:43.008Z,90.07
2018-06-24T05:43:42.925Z,89.35
2018-06-24T05:44:42.974Z,88.87
2018-06-24T05:45:42.897Z,88.68
2018-06-24T05:46:42.954Z,88.65
2018-06-24T05:47:42.935Z,88.73
2018-06-24T05:48:42.964Z,88.76
2018-06-24T05:49:42.977Z,89.08
2018-06-24T05:50:42.962Z,89.24
2018-06-24T05:51:43.025Z,89.06
2018-06-24T05:52:42.918Z,89.16
2018-06-24T05:53:42.964Z,89.24
2018-06-24T05:54:43.018Z,89.16
2018-06-24T05:55:42.963Z,88.97
2018-06-24T05:56:43.038Z,88.92
2018-06-24T05:57:43.024Z,89.03
2018-06-24T05:58:42.906Z,89.29
2018-06-24T05:59:42.865Z,89.19
2018-06-24T06:00:42.969Z,88.87
2018-06-24T06:01:42.891Z,88.65
2018-06-24T06:02:42.987Z,88.01
2018-06-24T06:03:42.876Z,87.77
2018-06-24T06:04:42.995Z,88.12
2018-06-24T06:05:42.892Z,87.64
2018-06-24T06:06:42.909Z,87.26
2018-06-24T06:07:42.934Z,87.88
2018-06-24T06:08:42.913Z,88.65
2018-06-24T06:09:42.976Z,88.52
2018-06-24T06:10:42.972Z,87.40
2018-06-24T06:11:43.038Z,87.00
2018-06-24T06:12:42.963Z,87.29
2018-06-24T06:13:42.977Z,88.01
2018-06-24T06:14:42.970Z,87.40
2018-06-24T06:15:42.986Z,87.82
2018-06-24T06:16:43.010Z,87.51
2018-06-24T06:17:43.036Z,86.91
2018-06-24T06:18:43.010Z,86.38
2018-06-24T06:19:43.010Z,86.60
2018-06-24T06:20:43.012Z,87.24
2018-06-24T06:21:43.039Z,87.21
2018-06-24T06:22:43.015Z,87.29
2018-06-24T06:23:42.976Z,86.87
2018-06-24T06:24:42.954Z,85.91
2018-06-24T06:25:42.952Z,86.15
2018-06-24T06:26:43.017Z,86.54
2018-06-24T06:27:42.957Z,87.10
2018-06-24T06:28:42.991Z,87.13
2018-06-24T06:29:42.987Z,86.22
2018-06-24T06:30:42.940Z,85.75
2018-06-24T06:31:43.064Z,85.91
2018-06-24T06:32:42.976Z,85.11
2018-06-24T06:33:43.092Z,84.95
2018-06-24T06:34:43.024Z,84.81
2018-06-24T06:35:43.048Z,84.60
2018-06-24T06:36:43.014Z,84.74
2018-06-24T06:37:43.007Z,85.00
2018-06-24T06:38:43.005Z,84.68
2018-06-24T06:39:42.997Z,84.47
2018-06-24T06:40:43.052Z,84.09
2018-06-24T06:41:43.030Z,84.44
2018-06-24T06:42:42.984Z,85.35
2018-06-24T06:43:42.990Z,84.44
2018-06-24T06:44:43.074Z,83.78
2018-06-24T06:45:43.262Z,84.02
2018-06-24T06:46:42.996Z,83.59
2018-06-24T06:47:42.929Z,83.54
2018-06-24T06:48:42.994Z,82.51
2018-06-24T06:49:43.035Z,82.40
2018-06-24T06:50:42.967Z,82.96
2018-06-24T06:51:43.033Z,83.44
2018-06-24T06:52:42.968Z,83.30
2018-06-24T06:53:43.038Z,82.21
2018-06-24T06:54:43.005Z,82.11
2018-06-24T06:55:42.968Z,81.58
2018-06-24T06:56:43.036Z,82.11
2018-06-24T06:57:42.980Z,82.59
2018-06-24T06:58:43.037Z,82.72
2018-06-24T06:59:42.975Z,82.69
2018-06-24T07:00:43.047Z,82.48
2018-06-24T07:01:42.975Z,82.19
2018-06-24T07:02:43.043Z,81.82
2018-06-24T07:03:43.135Z,81.98
2018-06-24T07:04:42.979Z,81.79
2018-06-24T07:05:43.118Z,81.71
2018-06-24T07:06:43.082Z,82.45
2018-06-24T07:07:42.979Z,81.02
2018-06-24T07:08:43.011Z,81.00
2018-06-24T07:09:42.949Z,81.79
2018-06-24T07:10:43.023Z,81.00
2018-06-24T07:11:42.999Z,80.60
2018-06-24T07:12:43.014Z,80.21
2018-06-24T07:13:43.070Z,79.83
2018-06-24T07:14:43.071Z,79.71
2018-06-24T07:15:42.949Z,80.05
2018-06-24T07:16:43.021Z,80.29
2018-06-24T07:17:42.990Z,80.52
2018-06-24T07:18:43.021Z,80.65
2018-06-24T07:19:43.028Z,80.79
2018-06-24T07:20:43.092Z,80.29
2018-06-24T07:21:43.052Z,80.23
2018-06-24T07:22:43.084Z,80.65
2018-06-24T07:23:43.015Z,80.52
2018-06-24T07:24:43.069Z,80.10
2018-06-24T07:25:43.039Z,81.02
2018-06-24T07:26:43.034Z,80.57
2018-06-24T07:27:43.120Z,79.89
2018-06-24T07:28:43.032Z,80.33
2018-06-24T07:29:43.024Z,80.92
2018-06-24T07:30:43.037Z,79.60
2018-06-24T07:31:43.021Z,80.02
2018-06-24T07:32:43.002Z,79.65
2018-06-24T07:33:43.146Z,79.41
2018-06-24T07:34:42.971Z,80.41
2018-06-24T07:35:42.967Z,80.02
2018-06-24T07:36:43.035Z,79.81
2018-06-24T07:37:43.084Z,80.55
2018-06-24T07:38:43.052Z,80.18
2018-06-24T07:39:43.017Z,80.79
2018-06-24T07:40:42.935Z,80.65
2018-06-24T07:41:43.058Z,80.71
2018-06-24T07:42:42.975Z,80.47
2018-06-24T07:43:43.056Z,80.15
2018-06-24T07:44:43.034Z,80.41
2018-06-24T07:45:43.051Z,80.55
2018-06-24T07:46:42.974Z,79.75
2018-06-24T07:47:43.054Z,79.97
2018-06-24T07:48:43.100Z,80.33
2018-06-24T07:49:43.134Z,79.31
2018-06-24T07:50:43.105Z,79.65
2018-06-24T07:51:42.975Z,79.49
2018-06-24T07:52:42.975Z,78.97
2018-06-24T07:53:42.984Z,79.49
2018-06-24T07:54:42.994Z,79.83
2018-06-24T07:55:43.042Z,79.73
2018-06-24T07:56:43.078Z,78.99
2018-06-24T07:57:43.000Z,79.33
2018-06-24T07:58:43.012Z,78.86
2018-06-24T07:59:43.080Z,79.41
2018-06-24T08:00:43.013Z,78.78
2018-06-24T08:01:43.012Z,79.10
2018-06-24T08:02:43.087Z,79.49
2018-06-24T08:03:43.063Z,78.78
2018-06-24T08:04:43.103Z,78.36
2018-06-24T08:05:43.017Z,77.44
2018-06-24T08:06:43.087Z,77.49
2018-06-24T08:07:43.014Z,78.36
2018-06-24T08:08:43.084Z,78.36
2018-06-24T08:09:43.020Z,78.44
2018-06-24T08:10:43.021Z,77.02
2018-06-24T08:11:43.020Z,77.99
2018-06-24T08:12:43.055Z,77.94
2018-06-24T08:13:43.023Z,78.09
2018-06-24T08:14:43.087Z,77.75
2018-06-24T08:15:43.026Z,78.05
2018-06-24T08:16:43.091Z,76.78
2018-06-24T08:17:43.091Z,77.07
2018-06-24T08:18:43.071Z,76.62
2018-06-24T08:19:42.959Z,76.86
2018-06-24T08:20:42.954Z,75.41
2018-06-24T08:21:42.961Z,75.55
2018-06-24T08:22:43.040Z,74.44
2018-06-24T08:23:42.973Z,75.23
2018-06-24T08:24:43.031Z,75.15
2018-06-24T08:25:42.981Z,76.65
2018-06-24T08:26:42.956Z,75.49
2018-06-24T08:27:43.079Z,76.41
2018-06-24T08:28:43.125Z,75.86
2018-06-24T08:29:43.138Z,75.18
2018-06-24T08:30:43.133Z,75.76
2018-06-24T08:31:43.183Z,74.60
2018-06-24T08:32:42.999Z,75.62
2018-06-24T08:33:43.007Z,74.63
2018-06-24T08:34:43.061Z,73.55
2018-06-24T08:35:43.039Z,73.58
2018-06-24T08:36:43.065Z,74.18
2018-06-24T08:37:43.130Z,74.03
2018-06-24T08:38:43.105Z,73.58
2018-06-24T08:39:43.011Z,74.03
2018-06-24T08:40:43.078Z,75.10
2018-06-24T08:41:43.131Z,73.48
2018-06-24T08:42:43.144Z,73.79
2018-06-24T08:43:43.063Z,73.53
2018-06-24T08:44:43.038Z,73.97
2018-06-24T08:45:43.065Z,74.18
2018-06-24T08:46:43.107Z,74.47
2018-06-24T08:47:43.092Z,74.50
2018-06-24T08:48:43.010Z,74.03
2018-06-24T08:49:43.130Z,73.93
2018-06-24T08:50:43.145Z,73.85
2018-06-24T08:51:43.088Z,74.34
2018-06-24T08:52:43.015Z,73.32
2018-06-24T08:53:43.136Z,73.69
2018-06-24T08:54:43.098Z,73.69
2018-06-24T08:55:43.131Z,74.36
2018-06-24T08:56:43.094Z,74.21
2018-06-24T08:57:43.144Z,73.87
2018-06-24T08:58:43.115Z,73.82
2018-06-24T08:59:43.119Z,73.16
2018-06-24T09:00:43.238Z,74.00
2018-06-24T09:01:43.051Z,74.26
2018-06-24T09:02:43.056Z,74.47
2018-06-24T09:03:43.123Z,74.18
2018-06-24T09:04:43.053Z,73.74
2018-06-24T09:05:43.136Z,73.40
2018-06-24T09:06:43.056Z,74.08
2018-06-24T09:07:43.061Z,73.95
2018-06-24T09:08:42.988Z,74.05
2018-06-24T09:09:43.119Z,73.74
2018-06-24T09:10:43.080Z,74.40
2018-06-24T09:11:43.122Z,74.24
2018-06-24T09:12:43.120Z,74.36
2018-06-24T09:13:43.111Z,74.21
2018-06-24T09:14:43.128Z,74.52
2018-06-24T09:15:43.091Z,74.84
2018-06-24T09:16:43.033Z,74.47
2018-06-24T09:17:43.016Z,74.68
2018-06-24T09:18:43.168Z,74.50
2018-06-24T09:19:43.163Z,74.16
2018-06-24T09:20:43.157Z,74.71
2018-06-24T09:21:43.171Z,73.79
2018-06-24T09:22:43.110Z,73.58
2018-06-24T09:23:43.149Z,73.63
2018-06-24T09:24:43.126Z,73.45
2018-06-24T09:25:43.052Z,74.18
2018-06-24T09:26:43.038Z,73.95
2018-06-24T09:27:43.149Z,72.43
2018-06-24T09:28:43.112Z,73.77
2018-06-24T09:29:43.038Z,72.20
2018-06-24T09:30:43.196Z,70.68
2018-06-24T09:31:43.165Z,71.47
2018-06-24T09:32:43.106Z,71.94
2018-06-24T09:33:43.168Z,72.38
2018-06-24T09:34:43.154Z,71.36
2018-06-24T09:35:43.158Z,71.21
2018-06-24T09:36:43.181Z,72.04
2018-06-24T09:37:43.046Z,71.81
2018-06-24T09:38:43.147Z,71.83
2018-06-24T09:39:43.171Z,69.85
2018-06-24T09:40:43.046Z,69.41
2018-06-24T09:41:43.085Z,69.96
2018-06-24T09:42:43.126Z,70.76
2018-06-24T09:43:43.122Z,69.98
2018-06-24T09:44:43.120Z,69.15
2018-06-24T09:45:43.088Z,68.58
2018-06-24T09:46:43.152Z,69.82
2018-06-24T09:47:43.072Z,69.36
2018-06-24T09:48:43.166Z,69.28
2018-06-24T09:49:43.116Z,69.82
2018-06-24T09:50:43.089Z,69.07
2018-06-24T09:51:43.186Z,68.60
2018-06-24T09:52:43.102Z,69.34
2018-06-24T09:53:43.043Z,68.81
2018-06-24T09:54:43.090Z,68.84
2018-06-24T09:55:43.164Z,69.80
2018-06-24T09:56:43.160Z,69.90
2018-06-24T09:57:43.088Z,68.45
2018-06-24T09:58:43.091Z,68.40
2018-06-24T09:59:43.157Z,67.96
2018-06-24T10:00:43.159Z,68.24
2018-06-24T10:01:43.093Z,68.29
2018-06-24T10:02:43.066Z,67.49
2018-06-24T10:03:43.165Z,67.41
2018-06-24T10:04:43.153Z,68.19
2018-06-24T10:05:43.208Z,66.92
2018-06-24T10:06:43.165Z,66.04
2018-06-24T10:07:43.206Z,66.22
2018-06-24T10:08:43.170Z,68.04
2018-06-24T10:09:43.073Z,66.84
2018-06-24T10:10:43.121Z,66.74
2018-06-24T10:11:43.129Z,67.41
2018-06-24T10:12:43.087Z,67.10
2018-06-24T10:13:43.132Z,68.08
2018-06-24T10:14:43.129Z,68.06
2018-06-24T10:15:43.170Z,68.47
2018-06-24T10:16:43.195Z,67.10
2018-06-24T10:17:43.173Z,67.85
2018-06-24T10:18:43.128Z,68.01
2018-06-24T10:19:43.105Z,67.00
2018-06-24T10:20:43.106Z,66.53
2018-06-24T10:21:43.174Z,67.18
2018-06-24T10:22:43.115Z,67.31
2018-06-24T10:23:43.176Z,67.67
2018-06-24T10:24:43.110Z,67.41
2018-06-24T10:25:43.180Z,68.01
2018-06-24T10:26:43.149Z,68.66
2018-06-24T10:27:43.185Z,67.46
2018-06-24T10:28:43.175Z,68.71
2018-06-24T10:29:43.176Z,68.81
2018-06-24T10:30:43.081Z,67.46
2018-06-24T10:31:43.218Z,68.58
2018-06-24T10:32:43.109Z,67.96
2018-06-24T10:33:43.092Z,67.23
2018-06-24T10:34:43.208Z,66.77
2018-06-24T10:35:43.164Z,67.02
2018-06-24T10:36:43.199Z,67.80
2018-06-24T10:37:43.195Z,66.45
2018-06-24T10:38:43.210Z,66.79
2018-06-24T10:39:43.178Z,66.50
2018-06-24T10:40:43.116Z,66.27
2018-06-24T10:41:43.091Z,67.08
2018-06-24T10:42:43.057Z,67.23
2018-06-24T10:43:43.178Z,67.10
2018-06-24T10:44:43.098Z,67.23
2018-06-24T10:45:43.095Z,67.62
2018-06-24T10:46:43.174Z,67.91
2018-06-24T10:47:43.129Z,66.95
2018-06-24T10:48:43.098Z,67.41
2018-06-24T10:49:43.195Z,67.20
2018-06-24T10:50:43.196Z,67.67
2018-06-24T10:51:43.124Z,66.87
2018-06-24T10:52:43.129Z,68.45
2018-06-24T10:53:43.130Z,67.64
2018-06-24T10:54:43.129Z,66.50
2018-06-24T10:55:43.198Z,67.13
2018-06-24T10:56:43.129Z,67.46
2018-06-24T10:57:43.132Z,67.60
2018-06-24T10:58:43.197Z,67.52
2018-06-24T10:59:43.118Z,68.27
2018-06-24T11:00:43.179Z,68.14
2018-06-24T11:01:43.154Z,67.77
2018-06-24T11:02:43.176Z,67.36
2018-06-24T11:03:43.202Z,67.91
2018-06-24T11:04:43.205Z,68.71
2018-06-24T11:05:43.171Z,68.66
2018-06-24T11:06:43.173Z,69.28
2018-06-24T11:07:43.165Z,69.10
2018-06-24T11:08:43.200Z,69.36
2018-06-24T11:09:43.269Z,69.90
2018-06-24T11:10:43.148Z,69.90
2018-06-24T11:11:43.243Z,70.37
2018-06-24T11:12:43.161Z,70.37
2018-06-24T11:13:43.231Z,70.27
2018-06-24T11:14:43.109Z,70.21
2018-06-24T11:15:43.231Z,69.82
2018-06-24T11:16:43.163Z,70.14
2018-06-24T11:17:43.234Z,70.29
2018-06-24T11:18:43.230Z,69.82
2018-06-24T11:19:43.176Z,70.35
2018-06-24T11:20:43.217Z,69.85
2018-06-24T11:21:43.230Z,70.21
2018-06-24T11:22:43.235Z,69.98
2018-06-24T11:23:43.187Z,71.13
2018-06-24T11:24:43.189Z,71.13
2018-06-24T11:25:43.173Z,71.28
2018-06-24T11:26:43.220Z,71.52
2018-06-24T11:27:43.185Z,72.01
2018-06-24T11:28:43.241Z,71.49
2018-06-24T11:29:43.092Z,71.60
2018-06-24T11:30:43.159Z,71.70
2018-06-24T11:31:43.099Z,72.22
2018-06-24T11:32:43.091Z,72.01
2018-06-24T11:33:43.046Z,71.70
2018-06-24T11:34:43.127Z,72.12
2018-06-24T11:35:43.040Z,71.96
2018-06-24T11:36:43.042Z,72.38
2018-06-24T11:37:43.100Z,72.20
2018-06-24T11:38:43.101Z,71.89
2018-06-24T11:39:43.094Z,72.25
2018-06-24T11:40:43.210Z,72.09
2018-06-24T11:41:43.243Z,72.09
2018-06-24T11:42:43.124Z,71.34
2018-06-24T11:43:43.134Z,71.42
2018-06-24T11:44:43.212Z,71.44
2018-06-24T11:45:43.224Z,72.22
2018-06-24T11:46:43.136Z,72.22
2018-06-24T11:47:43.227Z,72.41
2018-06-24T11:48:43.222Z,72.25
2018-06-24T11:49:43.189Z,71.99
2018-06-24T11:50:43.205Z,72.59
2018-06-24T11:51:43.197Z,72.59
2018-06-24T11:52:43.210Z,72.30
2018-06-24T11:53:43.261Z,72.56
2018-06-24T11:54:43.212Z,72.67
2018-06-24T11:55:43.269Z,73.11
2018-06-24T11:56:43.200Z,73.32
2018-06-24T11:57:43.136Z,73.14
2018-06-24T11:58:43.212Z,72.88
2018-06-24T11:59:43.260Z,72.46
2018-06-24T12:00:43.165Z,72.09
2018-06-24T12:01:43.170Z,72.28
2018-06-24T12:02:43.281Z,72.83
2018-06-24T12:03:43.196Z,73.03
2018-06-24T12:04:43.223Z,73.30
2018-06-24T12:05:43.229Z,73.77
2018-06-24T12:06:43.268Z,73.93
2018-06-24T12:07:43.220Z,72.83
2018-06-24T12:08:43.271Z,72.36
2018-06-24T12:09:43.325Z,73.11
2018-06-24T12:10:43.271Z,73.03
2018-06-24T12:11:43.208Z,73.42
2018-06-24T12:12:43.274Z,73.24
2018-06-24T12:13:43.290Z,73.85
2018-06-24T12:14:43.244Z,74.16
2018-06-24T12:15:43.281Z,74.08
2018-06-24T12:16:43.171Z,74.36
2018-06-24T12:17:43.280Z,74.08
2018-06-24T12:18:43.233Z,73.63
2018-06-24T12:19:43.276Z,73.40
2018-06-24T12:20:43.204Z,74.50
2018-06-24T12:21:43.282Z,74.89
2018-06-24T12:22:43.277Z,74.11
2018-06-24T12:23:43.238Z,74.21
2018-06-24T12:24:43.258Z,74.40
2018-06-24T12:25:43.164Z,74.60
2018-06-24T12:26:43.193Z,75.68
2018-06-24T12:27:43.212Z,75.23
2018-06-24T12:28:43.288Z,75.15
2018-06-24T12:29:43.248Z,74.47
2018-06-24T12:30:43.198Z,73.69
2018-06-24T12:31:43.157Z,75.05
2018-06-24T12:32:43.165Z,74.71
2018-06-24T12:33:43.245Z,74.44
2018-06-24T12:34:43.253Z,75.23
2018-06-24T12:35:43.167Z,75.15
2018-06-24T12:36:43.251Z,75.13
2018-06-24T12:37:43.194Z,75.86
2018-06-24T12:38:43.214Z,76.49
2018-06-24T12:39:43.393Z,75.47
2018-06-24T12:40:43.291Z,75.78
2018-06-24T12:41:43.298Z,76.20
2018-06-24T12:42:43.233Z,75.92
2018-06-24T12:43:43.249Z,76.26
2018-06-24T12:44:43.175Z,76.15
2018-06-24T12:45:43.247Z,77.15
2018-06-24T12:46:43.240Z,76.83
2018-06-24T12:47:43.252Z,76.15
2018-06-24T12:48:43.195Z,76.78
2018-06-24T12:49:43.232Z,75.65
2018-06-24T12:50:43.253Z,76.07
2018-06-24T12:51:43.245Z,75.89
2018-06-24T12:52:43.363Z,75.44